createdAt,value
2017-09-21T00:03:02.522Z,9.10
2017-09-21T00:08:05.734Z,9.10
2017-09-21T00:13:09.000Z,9.00
2017-09-21T00:18:12.984Z,9.10
2017-09-21T00:23:16.181Z,9.10
2017-09-21T00:28:19.395Z,9.20
2017-09-21T00:33:22.585Z,9.10
2017-09-21T00:38:25.785Z,9.20
2017-09-21T00:43:28.992Z,9.30
2017-09-21T00:48:32.233Z,9.00
2017-09-21T00:53:35.416Z,9.00
2017-09-21T00:58:38.622Z,8.70
2017-09-21T01:03:41.827Z,8.20
2017-09-21T01:08:45.020Z,8.20
2017-09-21T01:13:48.244Z,8.20
2017-09-21T01:18:51.411Z,8.10
2017-09-21T01:23:54.595Z,8.00
2017-09-21T01:28:57.776Z,7.80
2017-09-21T01:34:00.999Z,7.90
2017-09-21T01:39:04.200Z,7.90
2017-09-21T01:44:07.399Z,7.80
2017-09-21T01:49:10.582Z,7.80
2017-09-21T01:54:13.791Z,7.90
2017-09-21T01:59:16.983Z,8.10
2017-09-21T02:04:20.173Z,8.10
2017-09-21T02:09:23.392Z,8.10
2017-09-21T02:14:26.590Z,7.90
2017-09-21T02:19:29.824Z,8.20
2017-09-21T02:24:33.033Z,8.30
2017-09-21T02:29:36.297Z,7.90
2017-09-21T02:34:39.506Z,7.80
2017-09-21T02:39:43.470Z,7.50
2017-09-21T02:44:46.711Z,7.50
2017-09-21T02:49:49.937Z,7.30
2017-09-21T02:54:53.901Z,7.00
2017-09-21T02:59:57.120Z,7.00
2017-09-21T03:05:00.346Z,7.20
2017-09-21T03:10:03.555Z,7.40
2017-09-21T03:15:06.743Z,7.50
2017-09-21T03:20:09.955Z,7.50
2017-09-21T03:25:13.144Z,7.80
2017-09-21T03:30:16.365Z,7.70
2017-09-21T03:35:19.594Z,7.60
2017-09-21T03:40:22.814Z,7.70
2017-09-21T03:45:26.011Z,7.50
2017-09-21T03:50:29.225Z,7.40
2017-09-21T03:55:32.439Z,7.30
2017-09-21T04:00:36.416Z,7.40
2017-09-21T04:05:39.614Z,7.30
2017-09-21T04:10:42.878Z,7.40
2017-09-21T04:15:46.851Z,7.50
2017-09-21T04:20:50.087Z,7.50
2017-09-21T04:25:54.233Z,7.60
2017-09-21T04:30:57.439Z,7.50
2017-09-21T04:36:00.649Z,7.50
2017-09-21T04:41:04.623Z,7.50
2017-09-21T04:46:07.820Z,7.50
2017-09-21T04:51:11.027Z,7.40
2017-09-21T04:56:14.207Z,7.30
2017-09-21T05:01:18.189Z,7.50
2017-09-21T05:06:21.398Z,7.50
2017-09-21T05:11:24.631Z,7.60
2017-09-21T05:16:27.934Z,7.60
2017-09-21T05:21:31.174Z,7.60
2017-09-21T05:26:35.191Z,7.40
2017-09-21T05:31:39.336Z,7.40
2017-09-21T05:36:42.535Z,7.40
2017-09-21T05:41:45.728Z,7.40
2017-09-21T05:46:49.841Z,7.60
2017-09-21T05:51:53.279Z,7.60
2017-09-21T05:56:56.679Z,7.80
2017-09-21T06:02:00.075Z,8.00
2017-09-21T06:07:03.292Z,8.00
2017-09-21T06:12:07.395Z,8.30
2017-09-21T06:17:10.680Z,8.20
2017-09-21T06:22:13.906Z,8.30
2017-09-21T06:27:17.114Z,8.40
2017-09-21T06:32:20.325Z,8.40
2017-09-21T06:37:23.523Z,8.50
2017-09-21T06:42:26.729Z,8.60
2017-09-21T06:47:29.957Z,8.70
2017-09-21T06:52:33.154Z,8.70
2017-09-21T06:57:36.369Z,8.70
2017-09-21T07:02:39.577Z,8.90
2017-09-21T07:07:42.808Z,8.90
2017-09-21T07:12:46.774Z,9.00
2017-09-21T07:17:49.976Z,9.00
2017-09-21T07:22:53.173Z,9.20
2017-09-21T07:27:56.453Z,9.10
2017-09-21T07:33:00.420Z,9.40
2017-09-21T07:38:03.642Z,9.40
2017-09-21T07:43:06.889Z,9.50
2017-09-21T07:48:10.879Z,9.80
2017-09-21T07:53:14.085Z,9.80
2017-09-21T07:58:17.291Z,10.10
2017-09-21T08:03:20.501Z,10.10
2017-09-21T08:08:23.708Z,10.10
2017-09-21T08:13:26.941Z,10.00
2017-09-21T08:18:30.917Z,10.00
2017-09-21T08:23:34.142Z,10.00
2017-09-21T08:28:37.352Z,10.30
2017-09-21T08:33:40.564Z,10.20
2017-09-21T08:38:43.780Z,10.50
2017-09-21T08:43:46.981Z,10.30
2017-09-21T08:48:50.206Z,10.60
2017-09-21T08:53:54.178Z,10.60
2017-09-21T08:58:57.383Z,10.60
2017-09-21T09:04:00.584Z,10.70
2017-09-21T09:09:03.805Z,10.60
2017-09-21T09:14:07.019Z,10.80
2017-09-21T09:19:10.260Z,10.90
2017-09-21T09:24:13.528Z,10.80
2017-09-21T09:29:16.753Z,11.00
2017-09-21T09:34:20.161Z,11.30
2017-09-21T09:39:23.413Z,11.70
2017-09-21T09:44:27.432Z,12.00
2017-09-21T09:49:31.464Z,12.10
2017-09-21T09:54:35.453Z,12.00
2017-09-21T09:59:38.721Z,12.00
2017-09-21T10:04:41.965Z,12.00
2017-09-21T10:09:45.316Z,12.20
2017-09-21T10:14:48.549Z,12.50
2017-09-21T10:19:51.890Z,12.70
2017-09-21T10:24:55.108Z,13.00
2017-09-21T10:29:58.313Z,13.30
2017-09-21T10:35:01.512Z,13.40
2017-09-21T10:40:04.725Z,13.40
2017-09-21T10:45:07.937Z,13.20
2017-09-21T10:50:11.162Z,13.40
2017-09-21T10:55:15.154Z,13.10
2017-09-21T11:00:18.404Z,13.10
2017-09-21T11:05:22.388Z,13.70
2017-09-21T11:10:25.597Z,13.60
2017-09-21T11:15:28.822Z,13.80
2017-09-21T11:20:32.091Z,13.80
2017-09-21T11:25:35.315Z,13.80
2017-09-21T11:30:38.570Z,14.30
2017-09-21T11:35:42.529Z,14.50
2017-09-21T11:40:45.762Z,14.50
2017-09-21T11:45:48.967Z,14.80
2017-09-21T11:50:52.183Z,15.00
2017-09-21T11:55:55.390Z,15.00
2017-09-21T12:00:58.628Z,15.20
2017-09-21T12:06:02.616Z,15.50
2017-09-21T12:11:05.884Z,15.40
2017-09-21T12:16:09.085Z,15.50
2017-09-21T12:21:12.312Z,15.60
2017-09-21T12:26:15.531Z,15.80
2017-09-21T12:31:18.757Z,16.00
2017-09-21T12:36:21.965Z,16.00
2017-09-21T12:41:25.192Z,16.40
2017-09-21T12:46:28.402Z,16.40
2017-09-21T12:51:32.399Z,16.60
2017-09-21T12:56:35.707Z,16.50
2017-09-21T13:01:38.910Z,16.60
2017-09-21T13:06:42.164Z,16.50
2017-09-21T13:11:45.399Z,16.60
2017-09-21T13:16:48.631Z,16.80
2017-09-21T13:21:51.860Z,16.90
2017-09-21T13:26:55.098Z,17.00
2017-09-21T13:31:59.101Z,17.00
2017-09-21T13:37:03.076Z,17.10
2017-09-21T13:42:06.308Z,17.10
2017-09-21T13:47:09.520Z,17.10
2017-09-21T13:52:12.745Z,17.20
2017-09-21T13:57:15.938Z,17.40
2017-09-21T14:02:19.156Z,17.40
2017-09-21T14:07:22.387Z,17.60
2017-09-21T14:12:25.624Z,17.60
2017-09-21T14:17:28.842Z,17.70
2017-09-21T14:22:32.184Z,17.70
2017-09-21T14:27:35.401Z,17.70
2017-09-21T14:32:38.557Z,17.40
2017-09-21T14:37:41.766Z,17.50
2017-09-21T14:42:44.971Z,17.50
2017-09-21T14:47:48.208Z,17.60
2017-09-21T14:52:51.417Z,17.50
2017-09-21T14:57:54.636Z,17.40
2017-09-21T15:02:57.824Z,17.50
2017-09-21T15:08:01.036Z,17.50
2017-09-21T15:13:04.278Z,17.50
2017-09-21T15:18:08.263Z,17.60
2017-09-21T15:23:16.737Z,17.60
2017-09-21T15:28:19.949Z,17.70
2017-09-21T15:33:23.164Z,17.60
2017-09-21T15:38:26.382Z,17.60
2017-09-21T15:43:29.618Z,17.50
2017-09-21T15:48:32.821Z,17.30
2017-09-21T15:53:36.041Z,17.30
2017-09-21T15:58:39.252Z,17.40
2017-09-21T16:03:42.450Z,17.30
2017-09-21T16:08:45.692Z,17.20
2017-09-21T16:13:49.673Z,17.00
2017-09-21T16:18:52.889Z,17.00
2017-09-21T16:23:56.088Z,16.90
2017-09-21T16:28:59.296Z,16.90
2017-09-21T16:34:02.534Z,16.80
2017-09-21T16:39:05.857Z,16.70
2017-09-21T16:44:09.101Z,16.60
2017-09-21T16:49:12.309Z,16.40
2017-09-21T16:54:15.540Z,16.20
2017-09-21T16:59:18.749Z,16.00
2017-09-21T17:04:22.089Z,15.60
2017-09-21T17:09:26.076Z,15.40
2017-09-21T17:14:29.299Z,15.40
2017-09-21T17:19:32.545Z,15.10
2017-09-21T17:24:35.742Z,14.80
2017-09-21T17:29:38.987Z,14.50
2017-09-21T17:34:42.240Z,14.40
2017-09-21T17:39:46.242Z,13.90
2017-09-21T17:44:49.565Z,13.90
2017-09-21T17:49:53.565Z,13.80
2017-09-21T17:54:56.957Z,13.80
2017-09-21T18:00:00.175Z,13.70
2017-09-21T18:05:03.458Z,13.60
2017-09-21T18:10:06.689Z,13.80
2017-09-21T18:15:09.919Z,13.90
2017-09-21T18:20:13.147Z,13.80
2017-09-21T18:25:17.153Z,13.30
2017-09-21T18:30:20.402Z,13.30
2017-09-21T18:35:23.650Z,13.20
2017-09-21T18:40:26.913Z,13.10
2017-09-21T18:45:30.298Z,12.80
2017-09-21T18:50:34.293Z,12.60
2017-09-21T18:55:37.518Z,12.50
2017-09-21T19:00:40.731Z,12.50
2017-09-21T19:05:44.753Z,12.30
2017-09-21T19:10:48.752Z,12.40
2017-09-21T19:15:51.988Z,12.30
2017-09-21T19:20:55.949Z,12.10
2017-09-21T19:25:59.162Z,12.10
2017-09-21T19:31:02.378Z,12.00
2017-09-21T19:36:05.601Z,12.00
2017-09-21T19:41:08.844Z,12.00
2017-09-21T19:46:12.850Z,11.90
2017-09-21T19:51:16.062Z,11.80
2017-09-21T19:56:20.086Z,11.80
2017-09-21T20:01:23.319Z,11.80
2017-09-21T20:06:26.562Z,11.70
2017-09-21T20:11:29.807Z,11.70
2017-09-21T20:16:33.789Z,11.60
2017-09-21T20:21:37.808Z,11.60
2017-09-21T20:26:41.036Z,11.50
2017-09-21T20:31:44.271Z,11.60
2017-09-21T20:36:48.246Z,11.40
2017-09-21T20:41:51.490Z,11.40
2017-09-21T20:46:54.696Z,11.30
2017-09-21T20:51:57.901Z,11.20
2017-09-21T20:57:01.135Z,11.10
2017-09-21T21:02:05.159Z,11.00
2017-09-21T21:07:08.377Z,11.00
2017-09-21T21:12:11.583Z,10.90
2017-09-21T21:17:14.801Z,10.80
2017-09-21T21:22:18.040Z,10.80
2017-09-21T21:27:21.257Z,10.80
2017-09-21T21:32:24.465Z,10.80
2017-09-21T21:37:27.698Z,10.90
2017-09-21T21:42:30.934Z,10.80
2017-09-21T21:47:34.145Z,10.70
2017-09-21T21:52:37.389Z,10.70
2017-09-21T21:57:40.614Z,10.70
2017-09-21T22:02:44.597Z,10.70
2017-09-21T22:07:47.818Z,10.70
2017-09-21T22:12:51.034Z,10.70
2017-09-21T22:17:54.241Z,10.70
2017-09-21T22:22:57.474Z,10.70
2017-09-21T22:28:01.441Z,10.60
2017-09-21T22:33:04.718Z,10.60
2017-09-21T22:38:07.928Z,10.50
2017-09-21T22:43:11.141Z,10.50
2017-09-21T22:48:14.389Z,10.50
2017-09-21T22:53:17.606Z,10.50
2017-09-21T22:58:20.815Z,10.50
2017-09-21T23:03:24.053Z,10.40
2017-09-21T23:08:28.057Z,10.20
2017-09-21T23:13:31.260Z,10.20
2017-09-21T23:18:34.476Z,10.20
2017-09-21T23:23:38.459Z,10.10
2017-09-21T23:28:41.725Z,10.10
2017-09-21T23:33:45.688Z,10.10
2017-09-21T23:38:48.919Z,10.10
2017-09-21T23:43:52.124Z,9.90
2017-09-21T23:48:55.435Z,10.00
2017-09-21T23:53:58.880Z,9.90
2017-09-21T23:59:02.841Z,9.90
